Time;durP1;ratioP1;P1;durP2;ratioP2;P2;SDS_P1;SDS_P2;PMS_P1;PMS_P2;Temp;Humidity;BMP_temperature;BMP_pressure;BME280_temperature;BME280_humidity;BME280_pressure;Samples;Min_cycle;Max_cycle;Signal;HPM_P1;HPM_P2
2022/05/20 00:01:46;;;;;;;9.23;2.42;;;;;;;8.69;100.00;100835.13;4991802;28;20034;-81
2022/05/20 00:04:12;;;;;;;11.18;2.33;;;;;;;8.82;100.00;100839.19;5007667;28;20042;-80
2022/05/20 00:06:38;;;;;;;8.48;2.15;;;;;;;8.76;100.00;100824.59;4980538;28;20115;-82
2022/05/20 00:09:04;;;;;;;13.60;2.97;;;;;;;8.72;100.00;100828.59;5025834;28;20030;-82
2022/05/20 00:11:29;;;;;;;12.43;2.60;;;;;;;8.68;100.00;100814.69;5005288;28;20033;-80
2022/05/20 00:13:55;;;;;;;11.18;2.65;;;;;;;8.66;100.00;100816.69;5026754;28;20030;-83
2022/05/20 00:16:21;;;;;;;15.48;2.63;;;;;;;8.59;100.00;100811.13;4993525;28;20038;-81
2022/05/20 00:18:47;;;;;;;14.43;2.53;;;;;;;8.62;100.00;100801.91;5012563;28;20041;-80
2022/05/20 00:21:13;;;;;;;11.98;2.88;;;;;;;8.66;100.00;100811.31;5007456;28;20037;-81
2022/05/20 00:23:39;;;;;;;11.05;2.47;;;;;;;8.72;100.00;100809.84;5010352;28;20029;-81
2022/05/20 00:26:05;;;;;;;14.73;2.72;;;;;;;8.59;100.00;100799.56;5008533;28;20088;-81
2022/05/20 00:28:31;;;;;;;12.95;2.97;;;;;;;8.63;100.00;100800.09;5012589;28;20018;-81
2022/05/20 00:31:04;;;;;;;5.40;2.38;;;;;;;8.65;100.00;100806.94;4990244;28;20030;-81
2022/05/20 00:33:30;;;;;;;6.70;1.92;;;;;;;8.76;100.00;100812.03;5004114;28;20041;-81
2022/05/20 00:35:56;;;;;;;16.73;2.85;;;;;;;8.73;100.00;100793.59;5013183;28;20365;-82
2022/05/20 00:38:22;;;;;;;11.25;3.38;;;;;;;8.53;100.00;100781.47;4989524;28;20455;-81
2022/05/20 00:40:49;;;;;;;6.40;1.73;;;;;;;8.61;100.00;100816.31;5009253;28;20069;-80
2022/05/20 00:43:29;;;;;;;22.23;3.35;;;;;;;8.57;100.00;100798.88;5011974;28;20037;-82
2022/05/20 00:45:57;;;;;;;14.75;2.72;;;;;;;8.61;100.00;100797.56;5012471;28;20109;-82
2022/05/20 00:48:24;;;;;;;9.88;2.10;;;;;;;8.75;100.00;100804.13;5008239;28;20058;-82
2022/05/20 00:51:23;;;;;;;13.75;3.08;;;;;;;8.90;100.00;100804.34;5001608;28;20026;-81
2022/05/20 00:54:11;;;;;;;16.17;2.95;;;;;;;8.91;100.00;100788.09;5007706;28;20124;-82
2022/05/20 00:56:41;;;;;;;8.27;2.90;;;;;;;9.09;100.00;100793.31;5011242;28;20089;-83
2022/05/20 00:59:10;;;;;;;8.15;2.35;;;;;;;9.11;100.00;100777.06;5007392;28;20013;-80
2022/05/20 01:01:36;;;;;;;8.80;2.67;;;;;;;8.96;100.00;100753.56;4984382;28;20043;-80
2022/05/20 01:04:03;;;;;;;15.25;4.53;;;;;;;9.19;100.00;100779.78;5011467;28;20411;-82
2022/05/20 01:06:28;;;;;;;13.77;2.30;;;;;;;9.16;100.00;100777.44;4981928;28;20040;-82
2022/05/20 01:08:54;;;;;;;8.23;2.25;;;;;;;9.17;100.00;100782.59;4986474;28;20415;-81
2022/05/20 01:11:20;;;;;;;4.95;2.45;;;;;;;9.21;100.00;100777.75;5006445;28;20033;-80
2022/05/20 01:13:48;;;;;;;22.38;3.10;;;;;;;9.25;100.00;100771.88;5010819;28;20026;-81
2022/05/20 01:16:15;;;;;;;13.00;3.60;;;;;;;9.16;100.00;100754.13;4994912;28;20033;-80
2022/05/20 01:18:42;;;;;;;15.82;3.95;;;;;;;9.15;100.00;100754.25;5024411;28;20495;-81
2022/05/20 01:21:08;;;;;;;13.05;3.08;;;;;;;9.00;100.00;100749.56;4998350;28;20526;-81
2022/05/20 01:23:35;;;;;;;10.43;2.58;;;;;;;8.98;100.00;100748.06;5008825;28;20025;-81
2022/05/20 01:26:01;;;;;;;12.02;2.42;;;;;;;9.05;100.00;100741.03;5010395;28;20029;-81
2022/05/20 01:28:28;;;;;;;10.07;2.90;;;;;;;9.09;100.00;100750.41;5010498;28;20305;-81
2022/05/20 01:30:57;;;;;;;16.27;3.65;;;;;;;9.11;100.00;100751.09;5010384;28;20034;-82
2022/05/20 01:33:32;;;;;;;11.07;2.35;;;;;;;9.11;100.00;100752.94;4993819;28;20052;-82
2022/05/20 01:36:00;;;;;;;12.88;2.38;;;;;;;9.11;100.00;100744.88;4995162;28;20047;-81
2022/05/20 01:38:26;;;;;;;6.38;2.30;;;;;;;8.95;100.00;100730.44;5008573;28;20030;-80
2022/05/20 01:40:56;;;;;;;20.58;3.05;;;;;;;9.03;100.00;100735.81;5009621;28;20088;-83
2022/05/20 01:43:58;;;;;;;9.95;1.95;;;;;;;9.10;100.00;100751.25;5003690;28;20026;-81
2022/05/20 01:46:24;;;;;;;;;;;;;;;9.09;100.00;100747.72;5007121;28;20253;-80
2022/05/20 01:49:02;;;;;;;9.85;3.75;;;;;;;9.06;100.00;100747.22;5008144;28;19915;-80
2022/05/20 01:51:32;;;;;;;10.93;2.55;;;;;;;9.12;100.00;100744.72;4993574;28;20034;-81
2022/05/20 01:54:02;;;;;;;17.90;3.33;;;;;;;9.15;100.00;100736.31;5001999;28;20482;-80
2022/05/20 01:56:35;;;;;;;9.50;2.60;;;;;;;9.15;100.00;100728.28;4996798;28;20124;-80
2022/05/20 01:59:14;;;;;;;12.57;3.53;;;;;;;9.08;100.00;100713.88;4994315;28;20399;-81
2022/05/20 02:01:46;;;;;;;7.00;1.75;;;;;;;9.26;100.00;100727.09;4978265;28;20040;-81
2022/05/20 02:04:26;;;;;;;17.40;3.03;;;;;;;9.11;100.00;100680.50;4993354;28;20125;-81
2022/05/20 02:06:56;;;;;;;9.57;3.60;;;;;;;9.55;100.00;100731.97;5011258;28;20116;-80
2022/05/20 02:09:32;;;;;;;14.90;3.25;;;;;;;9.65;100.00;100713.81;4994453;28;20065;-81
2022/05/20 02:11:57;;;;;;;13.85;3.17;;;;;;;9.75;100.00;100713.63;5006529;28;20061;-81
2022/05/20 02:14:28;;;;;;;12.25;3.10;;;;;;;9.89;100.00;100733.56;4994270;28;20062;-81
2022/05/20 02:17:04;;;;;;;10.38;2.08;;;;;;;9.93;100.00;100724.16;4994586;28;20030;-80
2022/05/20 02:19:37;;;;;;;9.32;2.60;;;;;;;10.02;100.00;100727.66;5009497;28;20037;-81
2022/05/20 02:22:06;;;;;;;8.25;2.50;;;;;;;9.98;100.00;100720.97;5027624;28;20017;-81
2022/05/20 02:24:33;;;;;;;13.35;2.50;;;;;;;9.86;100.00;100707.06;5035026;28;20029;-81
2022/05/20 02:27:04;;;;;;;16.10;2.83;;;;;;;9.55;100.00;100661.31;5017570;28;20045;-80
2022/05/20 02:29:36;;;;;;;19.00;4.32;;;;;;;9.67;100.00;100692.16;5034890;28;20006;-81
2022/05/20 02:32:11;;;;;;;8.43;1.70;;;;;;;9.54;100.00;100698.06;5001422;28;20038;-80
2022/05/20 02:34:36;;;;;;;15.05;2.70;;;;;;;9.47;100.00;100699.75;5006395;28;20034;-81
2022/05/20 02:37:38;;;;;;;8.75;1.88;;;;;;;9.51;100.00;100697.59;5007834;28;20468;-81
2022/05/20 02:40:05;;;;;;;7.53;2.13;;;;;;;9.49;100.00;100675.44;4935120;29;20058;-80
2022/05/20 02:42:31;;;;;;;10.30;2.47;;;;;;;9.39;100.00;100675.59;4980854;28;20072;-82
2022/05/20 02:45:01;;;;;;;7.72;2.00;;;;;;;9.44;100.00;100686.66;5023660;28;20058;-81
2022/05/20 02:47:31;;;;;;;14.85;2.90;;;;;;;9.47;100.00;100694.38;5008858;28;20113;-82
2022/05/20 02:50:07;;;;;;;8.95;2.45;;;;;;;9.42;100.00;100669.91;5004745;28;20113;-81
2022/05/20 02:52:33;;;;;;;10.35;3.05;;;;;;;9.52;100.00;100689.34;5006903;28;20018;-82
2022/05/20 02:54:59;;;;;;;10.30;2.47;;;;;;;9.53;100.00;100679.47;4994025;28;20033;-81
2022/05/20 02:57:25;;;;;;;6.57;2.45;;;;;;;9.62;100.00;100687.31;5007639;28;20064;-81
2022/05/20 03:05:19;;;;;;;8.52;2.10;;;;;;;9.93;100.00;100666.94;5014596;28;20540;-80
2022/05/20 03:07:45;;;;;;;12.07;2.40;;;;;;;9.95;100.00;100655.00;5014536;28;20334;-81
2022/05/20 03:10:11;;;;;;;12.95;2.63;;;;;;;10.07;100.00;100663.50;5014541;28;20061;-80
2022/05/20 03:12:36;;;;;;;7.32;2.10;;;;;;;10.08;100.00;100660.66;5009394;28;20109;-81
2022/05/20 03:15:11;;;;;;;19.38;2.80;;;;;;;10.10;100.00;100663.97;5006298;28;20049;-80
2022/05/20 03:17:37;;;;;;;8.90;2.47;;;;;;;10.16;100.00;100666.97;5008366;28;20048;-80
2022/05/20 03:20:05;;;;;;;11.23;2.50;;;;;;;10.22;100.00;100658.22;5020470;28;20033;-83
2022/05/20 03:22:32;;;;;;;15.48;2.72;;;;;;;10.25;100.00;100658.72;4996823;28;20360;-81
2022/05/20 03:24:58;;;;;;;23.25;3.72;;;;;;;10.21;100.00;100640.41;4995862;28;20030;-80
2022/05/20 03:27:23;;;;;;;9.63;2.25;;;;;;;10.34;100.00;100656.84;5011522;28;20419;-82
2022/05/20 03:29:49;;;;;;;5.22;1.95;;;;;;;10.31;100.00;100638.38;5012797;28;20018;-81
2022/05/20 03:32:16;;;;;;;8.65;1.80;;;;;;;10.23;100.00;100633.84;5028124;28;20021;-82
2022/05/20 03:34:43;;;;;;;10.57;2.42;;;;;;;10.21;100.00;100652.00;5001641;28;20033;-80
2022/05/20 03:37:08;;;;;;;8.52;2.85;;;;;;;10.17;100.00;100655.22;5020606;28;20065;-82
2022/05/20 03:39:35;;;;;;;13.20;2.63;;;;;;;9.96;100.00;100621.75;5013822;28;20065;-83
2022/05/20 03:42:02;;;;;;;4.38;1.33;;;;;;;10.10;100.00;100634.41;4990190;28;20026;-81
2022/05/20 03:44:28;;;;;;;12.63;2.35;;;;;;;10.11;100.00;100636.13;5011275;28;20493;-81
2022/05/20 03:46:55;;;;;;;10.35;2.42;;;;;;;10.21;100.00;100640.41;5014043;28;20022;-81
2022/05/20 03:49:23;;;;;;;11.70;3.28;;;;;;;10.25;100.00;100631.00;4996701;28;20049;-81
2022/05/20 03:51:49;;;;;;;7.00;2.85;;;;;;;10.26;100.00;100628.13;4994846;28;20044;-83
2022/05/20 03:54:16;;;;;;;13.70;2.42;;;;;;;10.23;100.00;100619.59;5004719;28;20036;-82
2022/05/20 03:56:43;;;;;;;15.40;2.40;;;;;;;10.27;100.00;100620.91;4995830;28;20101;-80
2022/05/20 03:59:09;;;;;;;15.35;2.83;;;;;;;10.34;100.00;100624.59;5012169;28;20029;-82
2022/05/20 04:04:21;;;;;;;8.73;2.10;;;;;;;10.45;100.00;100608.06;5001305;28;20026;-81
2022/05/20 04:06:46;;;;;;;10.93;2.55;;;;;;;10.52;100.00;100608.19;5029490;28;20061;-81
2022/05/20 04:09:12;;;;;;;12.15;2.75;;;;;;;10.57;100.00;100612.00;5010205;28;20034;-82
2022/05/20 04:11:38;;;;;;;9.95;2.03;;;;;;;10.62;100.00;100611.47;4991728;28;20038;-81
2022/05/20 04:14:04;;;;;;;8.05;1.67;;;;;;;10.62;100.00;100613.31;5003243;28;20030;-82
2022/05/20 04:16:30;;;;;;;10.73;2.30;;;;;;;10.60;100.00;100608.13;4988847;28;20174;-82
2022/05/20 04:18:55;;;;;;;3.90;1.60;;;;;;;10.56;100.00;100607.66;5006555;28;20460;-81
2022/05/20 04:21:21;;;;;;;15.82;3.10;;;;;;;10.46;100.00;100612.41;5006039;28;20403;-81
2022/05/20 04:23:47;;;;;;;11.07;2.35;;;;;;;10.38;100.00;100598.22;4996349;28;20025;-80
2022/05/20 04:26:13;;;;;;;10.35;2.00;;;;;;;10.26;100.00;100595.03;5010672;28;20037;-81
2022/05/20 04:28:38;;;;;;;11.45;2.97;;;;;;;10.26;100.00;100598.56;4995922;28;20029;-81
2022/05/20 04:31:06;;;;;;;12.75;2.33;;;;;;;10.22;100.00;100586.50;5009975;28;20030;-81
2022/05/20 04:33:32;;;;;;;17.25;3.97;;;;;;;9.99;100.00;100559.59;4986291;28;20057;-81
2022/05/20 04:35:58;;;;;;;19.17;2.67;;;;;;;10.15;100.00;100584.72;4979776;28;20068;-81
2022/05/20 04:38:23;;;;;;;12.63;2.78;;;;;;;10.12;100.00;100584.03;5009893;28;20057;-81
2022/05/20 04:46:56;;;;;;;9.40;2.03;;;;;;;10.15;100.00;100577.47;4983743;28;20603;-81
2022/05/20 04:49:08;;;;;;;8.85;2.05;;;;;;;10.23;100.00;100585.50;5007098;28;20029;-81
2022/05/20 04:51:34;;;;;;;8.05;3.80;;;;;;;10.25;100.00;100588.00;5010499;28;20030;-81
2022/05/20 04:56:44;;;;;;;20.05;2.83;;;;;;;10.19;100.00;100577.94;5018367;28;20029;-81
2022/05/20 04:59:10;;;;;;;14.48;2.88;;;;;;;10.17;100.00;100575.47;4994241;28;20033;-81
2022/05/20 05:01:35;;;;;;;11.70;2.42;;;;;;;10.11;100.00;100570.81;5006433;28;20280;-80
2022/05/20 05:04:01;;;;;;;7.47;2.30;;;;;;;10.13;100.00;100580.38;4970295;28;20486;-80
2022/05/20 05:06:27;;;;;;;6.85;2.03;;;;;;;10.10;100.00;100548.44;4989123;28;20088;-81
2022/05/20 05:08:53;;;;;;;12.18;3.00;;;;;;;10.15;100.00;100555.97;5003618;28;20487;-82
2022/05/20 05:11:20;;;;;;;12.65;2.05;;;;;;;10.21;100.00;100567.88;5005774;28;20125;-80
2022/05/20 05:13:46;;;;;;;10.40;2.17;;;;;;;10.24;100.00;100571.06;5010192;28;20448;-81
2022/05/20 05:16:12;;;;;;;10.32;2.55;;;;;;;10.29;100.00;100573.22;5002786;28;20034;-81
2022/05/20 05:18:38;;;;;;;7.32;2.47;;;;;;;10.31;100.00;100577.41;5008919;28;20041;-81
2022/05/20 05:21:04;;;;;;;13.63;2.33;;;;;;;10.43;100.00;100577.84;5003793;28;20030;-81
2022/05/20 05:23:30;;;;;;;11.10;1.90;;;;;;;10.55;100.00;100584.44;4993410;28;20427;-81
2022/05/20 05:25:55;;;;;;;7.53;2.45;;;;;;;10.60;100.00;100566.94;5006025;28;20041;-81
2022/05/20 05:28:21;;;;;;;6.10;1.90;;;;;;;10.65;100.00;100554.63;5006186;28;20384;-81
2022/05/20 05:30:49;;;;;;;13.98;2.60;;;;;;;10.77;100.00;100569.31;5011333;28;20022;-81
2022/05/20 05:33:16;;;;;;;10.98;2.33;;;;;;;10.85;100.00;100563.03;5007977;28;20025;-82
2022/05/20 05:35:41;;;;;;;11.13;2.33;;;;;;;10.87;100.00;100558.28;5008050;28;20119;-80
2022/05/20 05:38:07;;;;;;;8.27;2.33;;;;;;;10.91;100.00;100551.53;5009649;28;20162;-80
2022/05/20 05:40:33;;;;;;;12.88;2.42;;;;;;;11.00;100.00;100554.97;5009309;28;20057;-80
2022/05/20 05:43:00;;;;;;;11.00;2.50;;;;;;;11.17;100.00;100556.50;5022302;28;20188;-81
2022/05/20 05:45:28;;;;;;;7.47;1.95;;;;;;;11.19;100.00;100554.47;4988785;28;20027;-80
2022/05/20 05:47:56;;;;;;;8.35;2.33;;;;;;;11.14;100.00;100556.88;5010004;28;20030;-82
2022/05/20 05:50:23;;;;;;;6.97;2.25;;;;;;;11.14;100.00;100547.94;5001613;28;20117;-81
2022/05/20 05:52:56;;;;;;;3.72;2.03;;;;;;;11.21;100.00;100547.00;4990333;28;20488;-80
2022/05/20 05:55:26;;;;;;;11.13;2.45;;;;;;;11.28;100.00;100547.13;5007328;28;20034;-81
2022/05/20 05:57:54;;;;;;;11.55;3.22;;;;;;;11.33;100.00;100543.88;5004122;28;20052;-81
2022/05/20 06:00:20;;;;;;;12.43;3.63;;;;;;;11.33;100.00;100543.88;5008521;28;20061;-80
2022/05/20 06:02:46;;;;;;;9.10;4.13;;;;;;;11.27;100.00;100529.28;5002567;28;20164;-80
2022/05/20 06:05:12;;;;;;;13.48;4.10;;;;;;;11.57;100.00;100548.97;4991463;28;20038;-81
2022/05/20 06:07:38;;;;;;;13.18;4.03;;;;;;;11.97;100.00;100545.94;4994240;28;20052;-80
2022/05/20 06:10:04;;;;;;;20.55;5.30;;;;;;;12.61;100.00;100540.56;5008446;28;20022;-83
2022/05/20 06:12:43;;;;;;;16.80;4.90;;;;;;;13.26;100.00;100535.00;5011166;28;20021;-82
2022/05/20 06:15:16;;;;;;;10.85;3.92;;;;;;;14.42;94.07;100540.41;5003675;28;20121;-80
2022/05/20 06:17:43;;;;;;;19.77;4.70;;;;;;;14.57;92.37;100532.16;4993205;28;20088;-80
2022/05/20 06:20:09;;;;;;;10.65;3.90;;;;;;;14.51;90.00;100496.75;5008768;28;20030;-81
2022/05/20 06:22:35;;;;;;;11.73;3.53;;;;;;;14.64;90.75;100528.41;5021081;28;20025;-80
2022/05/20 06:25:01;;;;;;;12.07;4.03;;;;;;;14.03;92.38;100525.81;5011794;28;20022;-79
2022/05/20 06:27:27;;;;;;;11.77;3.75;;;;;;;13.68;94.72;100534.03;5025259;28;20113;-79
2022/05/20 06:29:52;;;;;;;10.52;3.78;;;;;;;13.37;96.69;100527.22;5001824;28;20363;-82
2022/05/20 06:32:18;;;;;;;10.57;3.42;;;;;;;13.05;97.82;100533.22;5011319;28;20029;-79
2022/05/20 06:40:16;;;;;;;15.02;3.83;;;;;;;12.59;100.00;100539.09;5011398;28;20089;-79
2022/05/20 06:42:44;;;;;;;12.10;4.15;;;;;;;12.57;100.00;100533.91;4985823;28;20084;-79
2022/05/20 06:45:11;;;;;;;9.63;4.05;;;;;;;12.24;100.00;100538.97;5023328;28;20033;-82
2022/05/20 06:47:37;;;;;;;9.95;3.13;;;;;;;11.97;100.00;100545.94;5009962;28;20065;-83
2022/05/20 06:50:05;;;;;;;11.32;3.80;;;;;;;11.70;100.00;100523.22;5011484;28;20038;-82
2022/05/20 06:52:31;;;;;;;1.48;1.38;;;;;;;11.68;100.00;100544.94;5009294;28;20021;-81
2022/05/20 06:54:56;;;;;;;0.40;0.40;;;;;;;11.59;100.00;100537.97;5013686;28;20021;-81
2022/05/20 06:57:24;;;;;;;0.57;0.52;;;;;;;11.55;100.00;100542.91;4995976;28;20519;-80
2022/05/20 06:59:51;;;;;;;4.40;1.95;;;;;;;11.45;100.00;100536.97;5011766;28;20022;-81
2022/05/20 07:02:17;;;;;;;0.30;0.30;;;;;;;11.33;100.00;100538.50;5011051;28;20116;-83
2022/05/20 07:04:43;;;;;;;0.38;0.38;;;;;;;11.17;100.00;100518.00;5003856;28;20034;-81
2022/05/20 07:07:08;;;;;;;0.40;0.40;;;;;;;11.31;100.00;100535.97;4980009;28;20097;-80
2022/05/20 07:09:35;;;;;;;0.60;0.60;;;;;;;11.47;100.00;100518.78;5018532;28;20037;-82
2022/05/20 07:12:06;;;;;;;0.95;0.95;;;;;;;11.73;100.00;100522.84;5011150;28;20440;-79
2022/05/20 07:15:01;;;;;;;0.40;0.40;;;;;;;11.81;100.00;100498.50;5004980;28;20539;-83
2022/05/20 07:17:31;;;;;;;1.30;1.20;;;;;;;12.09;100.00;100499.44;4988076;28;20045;-82
2022/05/20 07:19:57;;;;;;;0.60;0.60;;;;;;;12.42;100.00;100522.34;5009545;28;20038;-83
2022/05/20 07:22:23;;;;;;;0.40;0.40;;;;;;;12.49;100.00;100520.53;4996250;28;20100;-82
2022/05/20 07:24:49;;;;;;;0.47;0.47;;;;;;;12.34;100.00;100512.53;4982049;28;20040;-81
2022/05/20 07:27:15;;;;;;;0.52;0.52;;;;;;;12.07;100.00;100509.59;5027869;28;20026;-83
2022/05/20 07:29:41;;;;;;;0.35;0.35;;;;;;;11.87;100.00;100509.34;4996851;28;20022;-82
2022/05/20 07:32:07;;;;;;;0.35;0.35;;;;;;;11.76;100.00;100511.69;5010084;28;20034;-87
2022/05/20 07:34:33;;;;;;;0.30;0.30;;;;;;;11.56;100.00;100516.81;5012522;28;20113;-84
2022/05/20 07:36:59;;;;;;;0.57;0.57;;;;;;;11.46;100.00;100517.13;5012283;28;20159;-82
2022/05/20 07:39:25;;;;;;;0.38;0.38;;;;;;;11.43;100.00;100517.47;5007556;28;20465;-85
2022/05/20 07:41:51;;;;;;;0.52;0.52;;;;;;;11.52;100.00;100519.06;5006737;28;20030;-80
2022/05/20 07:44:18;;;;;;;0.45;0.45;;;;;;;11.71;100.00;100509.56;5008684;28;20034;-81
2022/05/20 07:46:44;;;;;;;0.63;0.50;;;;;;;11.98;100.00;100521.50;5013919;28;20045;-81
2022/05/20 07:49:10;;;;;;;1.17;0.70;;;;;;;12.20;100.00;100522.38;5015257;28;20452;-81
2022/05/20 07:51:39;;;;;;;0.55;0.50;;;;;;;12.40;100.00;100519.00;4997089;28;20418;-83
2022/05/20 07:54:08;;;;;;;2.15;0.70;;;;;;;12.48;100.00;100518.88;4997556;28;20049;-83
2022/05/20 07:56:40;;;;;;;0.40;0.40;;;;;;;12.30;100.00;100511.22;4992258;28;20117;-81
2022/05/20 07:59:10;;;;;;;0.40;0.40;;;;;;;12.24;100.00;100537.09;5027645;28;20030;-82
2022/05/20 08:01:38;;;;;;;0.47;0.47;;;;;;;12.17;100.00;100536.22;4986630;28;20037;-82
2022/05/20 08:07:02;;;;;;;1.58;1.50;;;;;;;11.75;100.00;100520.78;5026347;28;20029;-80
2022/05/20 08:09:29;;;;;;;0.40;0.40;;;;;;;11.55;100.00;100520.56;4995123;28;20030;-86
2022/05/20 08:11:57;;;;;;;0.40;0.40;;;;;;;11.61;100.00;100530.56;5028282;28;20109;-82
2022/05/20 08:14:22;;;;;;;0.40;0.40;;;;;;;11.51;100.00;100524.63;4991350;28;20064;-86
2022/05/20 08:16:48;;;;;;;0.30;0.30;;;;;;;11.35;100.00;100533.75;4989365;28;20034;-80
2022/05/20 08:19:14;;;;;;;0.30;0.30;;;;;;;11.26;100.00;100540.25;5011251;28;20425;-79
2022/05/20 08:21:39;;;;;;;0.30;0.30;;;;;;;11.11;100.00;100534.84;5011190;28;20475;-78
2022/05/20 08:24:05;;;;;;;0.40;0.40;;;;;;;11.08;100.00;100533.38;5019842;28;20034;-79
2022/05/20 08:26:31;;;;;;;0.30;0.30;;;;;;;10.94;100.00;100524.28;5012477;28;20053;-82
2022/05/20 08:28:57;;;;;;;0.40;0.40;;;;;;;10.95;100.00;100525.09;5006054;28;20413;-85
2022/05/20 08:31:22;;;;;;;0.30;0.30;;;;;;;10.91;100.00;100530.03;5004712;28;20038;-84
2022/05/20 08:33:50;;;;;;;0.35;0.35;;;;;;;10.88;100.00;100529.56;5023040;28;20109;-82
2022/05/20 08:36:17;;;;;;;0.52;0.52;;;;;;;10.83;100.00;100530.09;4984544;28;20501;-83
2022/05/20 08:38:43;;;;;;;1.05;0.75;;;;;;;10.75;100.00;100539.09;4996365;28;20018;-80
2022/05/20 08:41:15;;;;;;;5.15;0.68;;;;;;;10.74;100.00;100547.31;5013138;28;20032;-79
2022/05/20 08:43:40;;;;;;;0.30;0.30;;;;;;;10.68;100.00;100540.81;4988815;28;20481;-82
2022/05/20 08:46:07;;;;;;;4.97;0.70;;;;;;;10.69;100.00;100547.03;4980477;28;20044;-82
2022/05/20 08:48:33;;;;;;;0.30;0.30;;;;;;;10.57;100.00;100528.66;5011137;28;20506;-78
2022/05/20 08:50:59;;;;;;;0.30;0.30;;;;;;;10.74;100.00;100545.50;4991769;28;20038;-80
2022/05/20 08:53:33;;;;;;;0.40;0.40;;;;;;;10.84;100.00;100547.91;4990720;28;20088;-83
2022/05/20 08:56:08;;;;;;;0.40;0.40;;;;;;;11.02;100.00;100549.44;5009989;28;20108;-81
2022/05/20 08:58:36;;;;;;;0.65;0.40;;;;;;;11.41;100.00;100541.91;4994360;28;20021;-83
2022/05/20 09:01:02;;;;;;;0.40;0.40;;;;;;;11.88;100.00;100535.28;4995250;28;20083;-85
2022/05/20 09:03:28;;;;;;;0.40;0.40;;;;;;;12.43;100.00;100557.19;5010168;28;20084;-81
2022/05/20 09:06:08;;;;;;;0.50;0.50;;;;;;;12.73;100.00;100557.06;4995081;28;20034;-84
2022/05/20 09:08:34;;;;;;;0.40;0.40;;;;;;;13.07;100.00;100561.69;5019678;28;20108;-84
2022/05/20 09:11:03;;;;;;;0.45;0.45;;;;;;;13.88;100.00;100563.81;5011304;28;20101;-83
2022/05/20 09:16:28;;;;;;;0.50;0.50;;;;;;;15.49;100.00;100566.41;5002925;28;20030;-82
2022/05/20 09:19:13;;;;;;;0.50;0.50;;;;;;;15.97;99.90;100570.63;4991549;28;20029;-86
2022/05/20 09:21:42;;;;;;;0.40;0.40;;;;;;;15.85;98.90;100556.09;5007007;28;20474;-83
2022/05/20 09:24:16;;;;;;;0.40;0.40;;;;;;;15.94;99.14;100566.47;5002737;28;20057;-84
2022/05/20 09:26:48;;;;;;;0.50;0.50;;;;;;;15.96;97.27;100575.22;4983805;28;20053;-84
2022/05/20 09:29:28;;;;;;;0.40;0.40;;;;;;;15.31;99.76;100529.16;5009233;28;20037;-83
2022/05/20 09:32:01;;;;;;;0.70;0.70;;;;;;;15.32;100.00;100552.50;5022239;28;20049;-83
2022/05/20 09:34:27;;;;;;;0.40;0.40;;;;;;;15.46;100.00;100568.72;5002794;28;20046;-84
2022/05/20 09:37:16;;;;;;;0.50;0.50;;;;;;;15.68;100.00;100574.69;5010846;28;20030;-83
2022/05/20 09:39:45;;;;;;;0.50;0.50;;;;;;;15.86;99.19;100574.03;5011948;28;20031;-82
2022/05/20 09:42:20;;;;;;;0.57;0.57;;;;;;;16.19;97.48;100561.13;5003791;28;20026;-84
2022/05/20 09:44:51;;;;;;;0.50;0.50;;;;;;;16.73;95.38;100571.63;5009324;28;20021;-85
2022/05/20 09:47:32;;;;;;;0.40;0.40;;;;;;;16.63;93.84;100575.66;4983653;28;20041;-85
2022/05/20 09:50:22;;;;;;;0.50;0.50;;;;;;;16.61;95.32;100576.94;5024146;28;20045;-85
2022/05/20 09:53:00;;;;;;;0.50;0.50;;;;;;;16.69;94.25;100572.06;5024564;28;20022;-86
2022/05/20 09:55:40;;;;;;;0.40;0.40;;;;;;;16.47;93.26;100570.78;4994762;28;20116;-86
2022/05/20 09:58:32;;;;;;;0.40;0.40;;;;;;;16.43;94.14;100585.81;5027247;28;20112;-87
2022/05/20 10:01:04;;;;;;;0.50;0.50;;;;;;;16.18;95.04;100567.59;5010372;28;20129;-85
2022/05/20 10:03:37;;;;;;;1.50;0.60;;;;;;;15.91;96.02;100585.91;5010327;28;20041;-82
2022/05/20 10:06:13;;;;;;;0.40;0.40;;;;;;;15.23;99.66;100583.56;5010884;28;20030;-84
2022/05/20 10:08:49;;;;;;;1.67;0.57;;;;;;;14.25;99.08;100594.91;5021860;28;20056;-80
2022/05/20 10:11:24;;;;;;;0.40;0.40;;;;;;;13.29;100.00;100597.59;4998014;28;20037;-83
2022/05/20 10:13:55;;;;;;;0.40;0.40;;;;;;;13.07;100.00;100596.78;5035947;28;20034;-83
2022/05/20 10:16:26;;;;;;;0.50;0.50;;;;;;;13.08;100.00;100611.09;5037825;28;20030;-80
2022/05/20 10:19:21;;;;;;;0.40;0.40;;;;;;;13.18;100.00;100598.94;5005472;28;20064;-78
2022/05/20 10:21:54;;;;;;;0.45;0.40;;;;;;;13.23;100.00;100594.78;5007477;28;20486;-80
2022/05/20 10:24:32;;;;;;;0.35;0.35;;;;;;;13.23;100.00;100600.19;4999110;28;20124;-81
2022/05/20 10:27:03;;;;;;;0.40;0.40;;;;;;;13.16;100.00;100584.78;5011121;28;20506;-83
2022/05/20 10:32:55;;;;;;;0.50;0.50;;;;;;;13.71;100.00;100603.03;4992616;28;20460;-86
2022/05/20 10:35:24;;;;;;;0.70;0.70;;;;;;;15.94;96.04;100587.34;5011040;28;20029;-82
2022/05/20 10:38:02;;;;;;;0.50;0.50;;;;;;;18.64;81.37;100583.25;4999931;28;20022;-84
2022/05/20 10:40:39;;;;;;;0.40;0.40;;;;;;;17.35;88.36;100592.41;5010129;28;20026;-86
2022/05/20 10:43:23;;;;;;;0.50;0.50;;;;;;;16.44;91.26;100591.03;4975701;28;20512;-84
2022/05/20 10:49:13;;;;;;;0.40;0.40;;;;;;;15.64;96.68;100595.97;5018564;28;20068;-83
2022/05/20 10:51:58;;;;;;;0.43;0.43;;;;;;;15.61;96.35;100593.66;4990631;28;20367;-82
2022/05/20 10:54:49;;;;;;;0.50;0.50;;;;;;;16.03;96.07;100603.13;4975579;28;20057;-84
2022/05/20 10:57:25;;;;;;;0.50;0.50;;;;;;;15.89;95.78;100589.88;4993568;28;20034;-85
2022/05/20 10:59:54;;;;;;;0.57;0.57;;;;;;;15.87;95.22;100595.50;4992087;28;20037;-86
2022/05/20 11:03:01;;;;;;;0.47;0.47;;;;;;;15.72;95.52;100603.91;5025904;28;20026;-81
2022/05/20 11:05:58;;;;;;;0.52;0.52;;;;;;;14.98;97.14;100615.88;5009222;28;20238;-86
2022/05/20 11:08:43;;;;;;;3.50;0.75;;;;;;;14.02;99.87;100630.38;4984787;28;20077;-83
2022/05/20 11:11:16;;;;;;;2.30;1.40;;;;;;;13.59;100.00;100638.69;5023060;28;20436;-83
2022/05/20 11:13:54;;;;;;;;;;;;;;;13.44;100.00;100629.03;4990541;28;20501;-80
2022/05/20 11:16:49;;;;;;;0.50;0.50;;;;;;;14.21;99.22;100630.66;5000602;28;19918;-77
2022/05/20 11:19:52;;;;;;;0.60;0.60;;;;;;;15.53;94.27;100635.41;5012281;28;20060;-82
2022/05/20 11:22:57;;;;;;;0.70;0.70;;;;;;;17.10;87.60;100637.78;5006950;28;20509;-83
2022/05/20 11:25:54;;;;;;;0.55;0.55;;;;;;;17.14;86.14;100642.53;5025041;28;20054;-81
2022/05/20 11:28:28;;;;;;;0.50;0.50;;;;;;;16.64;87.81;100633.50;5021541;28;20022;-82
2022/05/20 11:31:19;;;;;;;0.80;0.80;;;;;;;19.03;79.82;100647.22;5004550;28;20030;-83
2022/05/20 11:34:17;;;;;;;0.70;0.70;;;;;;;21.48;71.55;100643.13;5019286;28;20265;-81
2022/05/20 11:37:24;;;;;;;0.70;0.70;;;;;;;22.01;67.36;100640.81;4984200;28;20379;-84
2022/05/20 11:40:06;;;;;;;2.50;0.80;;;;;;;22.45;65.61;100650.97;5024997;28;20027;-81
2022/05/20 11:42:49;;;;;;;0.80;0.80;;;;;;;23.59;66.48;100641.53;5026844;28;20101;-81
2022/05/20 11:45:42;;;;;;;0.95;0.95;;;;;;;24.48;60.51;100634.28;5013474;28;20464;-81
2022/05/20 11:48:23;;;;;;;;;;;;;;;21.92;65.98;100648.66;4994751;28;20052;-81
2022/05/20 11:51:06;;;;;;;0.50;0.50;;;;;;;19.74;74.86;100650.81;5004994;28;20011;-82
2022/05/20 11:53:41;;;;;;;0.77;0.75;;;;;;;19.46;76.06;100646.06;5012195;28;20085;-80
2022/05/20 11:56:42;;;;;;;0.65;0.65;;;;;;;20.21;72.02;100645.22;5012431;28;20026;-82
2022/05/20 11:59:22;;;;;;;0.88;0.88;;;;;;;22.17;68.53;100650.91;5009381;28;20091;-80
2022/05/20 12:01:50;;;;;;;0.65;0.60;;;;;;;19.42;74.84;100642.13;5010834;28;20041;-81
2022/05/20 12:04:18;;;;;;;0.50;0.50;;;;;;;18.92;77.64;100644.44;5020969;28;20065;-81
2022/05/20 12:06:49;;;;;;;0.82;0.82;;;;;;;21.80;68.81;100638.91;4999882;28;20418;-81
2022/05/20 12:09:34;;;;;;;0.93;0.93;;;;;;;23.97;63.41;100650.53;5012056;28;20069;-80
2022/05/20 12:12:15;;;;;;;0.82;0.80;;;;;;;23.11;63.11;100607.75;4990326;28;20019;-81